Van Deusenville, Massachusetts
Current Conditions -  °F | °C
As of 11:54 PM on Saturday 25 Oct 2014 (Local Time) from KPSF Reporting Station
Broken Clouds Broken Clouds  
Wind Chill: 51°   Ceiling: 8000
Heat Index: 51°   Visibility: 10mi
Dew Point: 45°   Wind: 9mph
Humidity: 80%   Direction: 290°WNW
Pressure: 29.54"   Gusts: NA
Location:  42.1779°N, 73.3332°W
Report Text: KPSF 260354Z AUTO 29008KT 10SM BKN080 11/07 A2954 RMK AO2 SLP994 T01060072
Loading
Personal Weather Stations






























Interactive Weather Map
Tropical Storm Tracking
New forecast layout! Learn more

10-Day Weather Forecast

Advertisements
Track Severe Weather on mobile